Time;durP1;ratioP1;P1;durP2;ratioP2;P2;SDS_P1;SDS_P2;PMS_P1;PMS_P2;Temp;Humidity;BMP_temperature;BMP_pressure;BME280_temperature;BME280_humidity;BME280_pressure;Samples;Min_cycle;Max_cycle;Signal;HPM_P1;HPM_P2
2021/12/06 00:02:22;;;;;;;;;;;;;;;;;;5059332;28;19917;-64
2021/12/06 00:04:47;;;;;;;;;;;;;;;;;;5058943;28;19919;-63
2021/12/06 00:07:12;;;;;;;;;;;;;;;;;;5066452;28;19912;-63
2021/12/06 00:09:37;;;;;;;;;;;;;;;;;;5059515;28;19913;-61
2021/12/06 00:12:02;;;;;;;;;;;;;;;;;;5059834;28;19921;-62
2021/12/06 00:14:29;;;;;;;;;;;;;;;;;;5061135;28;19913;-62
2021/12/06 00:16:54;;;;;;;;;;;;;;;;;;5060833;28;20015;-61
2021/12/06 00:19:19;;;;;;;;;;;;;;;;;;5065623;28;19999;-62
2021/12/06 00:21:44;;;;;;;;;;;;;;;;;;5059799;28;20004;-61
2021/12/06 00:24:09;;;;;;;;;;;;;;;;;;5061869;28;19916;-63
2021/12/06 00:26:34;;;;;;;;;;;;;;;;;;5062075;28;19920;-61
2021/12/06 00:28:59;;;;;;;;;;;;;;;;;;5060530;28;20000;-63
2021/12/06 00:31:24;;;;;;;;;;;;;;;;;;5064672;28;19920;-63
2021/12/06 00:33:58;;;;;;;;;;;;;;;;;;5079685;28;19912;-64
2021/12/06 00:36:28;;;;;;;;;;;;;;;;;;5084384;28;20400;-63
2021/12/06 00:38:53;;;;;;;;;;;;;;;;;;5081481;28;19989;-62
2021/12/06 00:41:18;;;;;;;;;;;;;;;;;;5080571;28;20024;-62
2021/12/06 00:43:43;;;;;;;;;;;;;;;;;;5081273;28;19912;-61
2021/12/06 00:46:08;;;;;;;;;;;;;;;;;;5085889;28;19908;-63
2021/12/06 00:48:33;;;;;;;;;;;;;;;;;;5081645;28;19931;-64
2021/12/06 00:50:58;;;;;;;;;;;;;;;;;;5075785;28;19966;-64
2021/12/06 00:53:23;;;;;;;;;;;;;;;;;;5077157;28;19952;-64
2021/12/06 00:55:48;;;;;;;;;;;;;;;;;;5084897;28;20257;-62
2021/12/06 00:58:13;;;;;;;;;;;;;;;;;;5076450;28;19921;-61
2021/12/06 01:00:39;;;;;;;;;;;;;;;;;;5083145;28;19917;-61
2021/12/06 01:03:04;;;;;;;;;;;;;;;;;;5083146;28;20054;-61
2021/12/06 01:05:29;;;;;;;;;;;;;;;;;;5081173;28;19923;-61
2021/12/06 01:07:54;;;;;;;;;;;;;;;;;;5081540;28;19924;-61
2021/12/06 01:10:19;;;;;;;;;;;;;;;;;;5084715;28;19938;-61
2021/12/06 01:12:44;;;;;;;;;;;;;;;;;;5079759;28;19958;-61
2021/12/06 01:15:09;;;;;;;;;;;;;;;;;;5081943;28;19927;-61
2021/12/06 01:17:34;;;;;;;;;;;;;;;;;;5082814;28;20307;-61
2021/12/06 01:19:59;;;;;;;;;;;;;;;;;;5083558;28;19991;-63
2021/12/06 01:22:41;;;;;;;;;;;;;;;;;;5087201;28;19965;-63
2021/12/06 01:25:18;;;;;;;;;;;;;;;;;;5082083;28;19916;-63
2021/12/06 01:28:02;;;;;;;;;;;;;;;;;;5084151;28;20094;-62
2021/12/06 01:30:50;;;;;;;;;;;;;;;;;;5083732;28;20895;-62
2021/12/06 01:41:27;;;;;;;;;;;;;;;;;;5089865;28;19992;-62
2021/12/06 01:43:52;;;;;;;;;;;;;;;;;;5092933;28;20018;-62
2021/12/06 01:46:17;;;;;;;;;;;;;;;;;;5085310;28;19916;-62
2021/12/06 01:48:42;;;;;;;;;;;;;;;;;;5090874;28;19971;-62
2021/12/06 01:51:07;;;;;;;;;;;;;;;;;;5066272;28;19912;-62
2021/12/06 01:53:32;;;;;;;;;;;;;;;;;;5080347;28;19916;-62
2021/12/06 01:55:57;;;;;;;;;;;;;;;;;;5079397;28;19920;-63
2021/12/06 01:58:23;;;;;;;;;;;;;;;;;;5086952;28;20003;-62
2021/12/06 02:00:48;;;;;;;;;;;;;;;;;;5084623;28;19942;-62
2021/12/06 02:03:13;;;;;;;;;;;;;;;;;;5074796;28;19920;-62
2021/12/06 02:05:38;;;;;;;;;;;;;;;;;;5088156;28;19913;-62
2021/12/06 02:08:03;;;;;;;;;;;;;;;;;;5079448;28;20288;-62
2021/12/06 02:10:28;;;;;;;;;;;;;;;;;;5085239;28;20368;-62
2021/12/06 02:12:54;;;;;;;;;;;;;;;;;;5083054;28;19927;-62
2021/12/06 02:16:03;;;;;;;;;;;;;;;;;;5090895;28;19924;-62
2021/12/06 02:18:12;;;;;;;;;;;;;;;;;;5076945;28;20139;-62
2021/12/06 02:20:45;;;;;;;;;;;;;;;;;;5079622;28;19934;-62
2021/12/06 02:23:10;;;;;;;;;;;;;;;;;;5065637;28;19916;-62
2021/12/06 02:25:35;;;;;;;;;;;;;;;;;;5081667;28;19912;-62
2021/12/06 02:28:01;;;;;;;;;;;;;;;;;;5086068;28;19919;-62
2021/12/06 02:30:26;;;;;;;;;;;;;;;;;;5082895;28;20725;-62
2021/12/06 02:32:51;;;;;;;;;;;;;;;;;;5084019;28;19916;-62
2021/12/06 02:35:18;;;;;;;;;;;;;;;;;;5084153;28;20292;-62
2021/12/06 02:37:43;;;;;;;;;;;;;;;;;;5083686;28;20030;-62
2021/12/06 02:40:09;;;;;;;;;;;;;;;;;;5078686;28;19928;-62
2021/12/06 02:42:34;;;;;;;;;;;;;;;;;;5082139;28;19944;-62
2021/12/06 02:44:59;;;;;;;;;;;;;;;;;;5080994;28;19999;-62
2021/12/06 02:47:24;;;;;;;;;;;;;;;;;;5083893;28;20544;-62
2021/12/06 02:49:49;;;;;;;;;;;;;;;;;;5085302;28;19912;-62
2021/12/06 02:52:14;;;;;;;;;;;;;;;;;;5082851;28;20040;-62
2021/12/06 02:54:39;;;;;;;;;;;;;;;;;;5083579;28;20279;-62
2021/12/06 02:59:32;;;;;;;;;;;;;;;;;;5085489;28;20384;-62
2021/12/06 03:01:57;;;;;;;;;;;;;;;;;;5084212;28;20007;-62
2021/12/06 03:04:23;;;;;;;;;;;;;;;;;;5080424;28;19966;-62
2021/12/06 03:06:52;;;;;;;;;;;;;;;;;;5080084;28;20395;-62
2021/12/06 03:09:17;;;;;;;;;;;;;;;;;;5080242;28;20010;-62
2021/12/06 03:11:42;;;;;;;;;;;;;;;;;;5079497;28;19996;-62
2021/12/06 03:14:07;;;;;;;;;;;;;;;;;;5083556;28;19920;-62
2021/12/06 03:16:32;;;;;;;;;;;;;;;;;;5081913;28;20381;-62
2021/12/06 03:18:57;;;;;;;;;;;;;;;;;;5083796;28;20403;-62
2021/12/06 03:21:22;;;;;;;;;;;;;;;;;;5085922;28;20050;-63
2021/12/06 03:23:48;;;;;;;;;;;;;;;;;;5081378;28;20037;-63
2021/12/06 03:26:13;;;;;;;;;;;;;;;;;;5082328;28;20069;-63
2021/12/06 03:28:38;;;;;;;;;;;;;;;;;;5079968;28;20394;-63
2021/12/06 03:31:04;;;;;;;;;;;;;;;;;;5081315;28;19931;-62
2021/12/06 03:33:29;;;;;;;;;;;;;;;;;;5081397;28;19947;-62
2021/12/06 03:35:54;;;;;;;;;;;;;;;;;;5082364;28;19979;-62
2021/12/06 03:38:19;;;;;;;;;;;;;;;;;;5072025;28;20007;-63
2021/12/06 03:40:44;;;;;;;;;;;;;;;;;;5084731;28;19916;-63
2021/12/06 03:43:09;;;;;;;;;;;;;;;;;;5079696;28;19958;-63
2021/12/06 03:45:34;;;;;;;;;;;;;;;;;;5079086;28;19912;-63
2021/12/06 03:47:59;;;;;;;;;;;;;;;;;;5083209;28;19912;-63
2021/12/06 03:50:24;;;;;;;;;;;;;;;;;;5080500;28;19916;-63
2021/12/06 03:52:49;;;;;;;;;;;;;;;;;;5084189;28;20333;-62
2021/12/06 03:55:15;;;;;;;;;;;;;;;;;;5081093;28;19916;-63
2021/12/06 03:57:40;;;;;;;;;;;;;;;;;;5082466;28;19994;-63
2021/12/06 04:00:05;;;;;;;;;;;;;;;;;;5083277;28;20015;-63
2021/12/06 04:02:30;;;;;;;;;;;;;;;;;;5080469;28;19962;-63
2021/12/06 04:04:55;;;;;;;;;;;;;;;;;;5081583;28;19912;-63
2021/12/06 04:07:20;;;;;;;;;;;;;;;;;;5084763;28;19928;-63
2021/12/06 04:09:45;;;;;;;;;;;;;;;;;;5082549;28;19912;-63
2021/12/06 04:12:10;;;;;;;;;;;;;;;;;;5083716;28;19913;-63
2021/12/06 04:14:36;;;;;;;;;;;;;;;;;;5079218;28;19916;-62
2021/12/06 04:17:01;;;;;;;;;;;;;;;;;;5078399;28;19920;-62
2021/12/06 04:19:26;;;;;;;;;;;;;;;;;;5081975;28;19916;-63
2021/12/06 04:21:51;;;;;;;;;;;;;;;;;;5080740;28;19943;-63
2021/12/06 04:24:16;;;;;;;;;;;;;;;;;;5078418;28;19912;-63
2021/12/06 04:26:41;;;;;;;;;;;;;;;;;;5079274;28;19912;-63
2021/12/06 04:29:06;;;;;;;;;;;;;;;;;;5082449;28;19975;-63
2021/12/06 04:31:32;;;;;;;;;;;;;;;;;;5081700;28;20369;-63
2021/12/06 04:33:57;;;;;;;;;;;;;;;;;;5082162;28;19913;-63
2021/12/06 04:36:22;;;;;;;;;;;;;;;;;;5080032;28;19985;-63
2021/12/06 04:38:47;;;;;;;;;;;;;;;;;;5081447;28;20372;-63
2021/12/06 04:41:12;;;;;;;;;;;;;;;;;;5082203;28;19954;-63
2021/12/06 04:43:37;;;;;;;;;;;;;;;;;;5080335;28;20249;-63
2021/12/06 04:46:02;;;;;;;;;;;;;;;;;;5070516;28;19912;-63
2021/12/06 04:48:27;;;;;;;;;;;;;;;;;;5082133;28;20350;-63
2021/12/06 04:50:52;;;;;;;;;;;;;;;;;;5081187;28;19916;-63
2021/12/06 04:53:17;;;;;;;;;;;;;;;;;;5080412;28;19912;-63
2021/12/06 04:55:42;;;;;;;;;;;;;;;;;;5081150;28;20311;-63
2021/12/06 04:58:07;;;;;;;;;;;;;;;;;;5079601;28;19965;-63
2021/12/06 05:00:32;;;;;;;;;;;;;;;;;;5079121;28;19920;-63
2021/12/06 05:02:57;;;;;;;;;;;;;;;;;;5080768;28;20015;-62
2021/12/06 05:05:23;;;;;;;;;;;;;;;;;;5079042;28;19916;-63
2021/12/06 05:07:48;;;;;;;;;;;;;;;;;;5086614;28;20456;-63
2021/12/06 05:10:13;;;;;;;;;;;;;;;;;;5082510;28;19916;-63
2021/12/06 05:12:38;;;;;;;;;;;;;;;;;;5082250;28;19912;-63
2021/12/06 05:15:03;;;;;;;;;;;;;;;;;;5081574;28;19919;-63
2021/12/06 05:17:31;;;;;;;;;;;;;;;;;;5085601;28;19944;-63
2021/12/06 05:19:56;;;;;;;;;;;;;;;;;;5082320;28;21411;-63
2021/12/06 05:22:21;;;;;;;;;;;;;;;;;;5085197;28;20367;-63
2021/12/06 05:24:46;;;;;;;;;;;;;;;;;;5082503;28;19919;-63
2021/12/06 05:27:11;;;;;;;;;;;;;;;;;;5078374;28;20360;-63
2021/12/06 05:29:36;;;;;;;;;;;;;;;;;;5087294;28;20371;-63
2021/12/06 05:32:01;;;;;;;;;;;;;;;;;;5066535;28;19924;-63
2021/12/06 05:34:33;;;;;;;;;;;;;;;;;;5059713;28;19919;-62
2021/12/06 05:36:58;;;;;;;;;;;;;;;;;;5056548;28;20300;-63
2021/12/06 05:39:24;;;;;;;;;;;;;;;;;;5055680;28;20368;-63
2021/12/06 05:41:49;;;;;;;;;;;;;;;;;;5065241;28;19920;-60
2021/12/06 05:44:14;;;;;;;;;;;;;;;;;;5058479;28;19943;-60
2021/12/06 05:46:39;;;;;;;;;;;;;;;;;;5056956;28;19927;-61
2021/12/06 05:49:04;;;;;;;;;;;;;;;;;;5062347;28;20648;-61
2021/12/06 05:51:29;;;;;;;;;;;;;;;;;;5063119;28;19912;-61
2021/12/06 05:53:54;;;;;;;;;;;;;;;;;;5068216;28;20364;-61
2021/12/06 05:56:19;;;;;;;;;;;;;;;;;;5058270;28;19966;-61
2021/12/06 05:58:44;;;;;;;;;;;;;;;;;;5058231;28;19983;-61
2021/12/06 06:01:09;;;;;;;;;;;;;;;;;;5065201;28;19923;-61
2021/12/06 06:03:34;;;;;;;;;;;;;;;;;;5065514;28;19963;-61
2021/12/06 06:06:00;;;;;;;;;;;;;;;;;;5068130;28;19917;-61
2021/12/06 06:08:25;;;;;;;;;;;;;;;;;;5068565;28;19967;-61
2021/12/06 06:10:51;;;;;;;;;;;;;;;;;;5065285;28;20277;-61
2021/12/06 06:13:16;;;;;;;;;;;;;;;;;;5069698;28;20344;-61
2021/12/06 06:15:41;;;;;;;;;;;;;;;;;;5066585;28;19916;-61
2021/12/06 06:18:06;;;;;;;;;;;;;;;;;;5069710;28;19913;-61
2021/12/06 06:20:31;;;;;;;;;;;;;;;;;;5067817;28;19918;-61
2021/12/06 06:22:56;;;;;;;;;;;;;;;;;;5064912;28;19917;-61
2021/12/06 06:25:21;;;;;;;;;;;;;;;;;;5066115;28;20276;-61
2021/12/06 06:27:46;;;;;;;;;;;;;;;;;;5065195;28;20331;-61
2021/12/06 06:30:11;;;;;;;;;;;;;;;;;;5062372;28;19912;-61
2021/12/06 06:32:36;;;;;;;;;;;;;;;;;;5066909;28;19924;-60
2021/12/06 06:35:02;;;;;;;;;;;;;;;;;;5059846;28;20022;-61
2021/12/06 06:37:27;;;;;;;;;;;;;;;;;;5066411;28;19921;-61
2021/12/06 06:39:52;;;;;;;;;;;;;;;;;;5064360;28;19912;-61
2021/12/06 06:42:17;;;;;;;;;;;;;;;;;;5062951;28;19924;-61
2021/12/06 06:44:42;;;;;;;;;;;;;;;;;;5067644;28;19988;-61
2021/12/06 06:47:07;;;;;;;;;;;;;;;;;;5064255;28;19913;-61
2021/12/06 06:49:32;;;;;;;;;;;;;;;;;;5064189;28;20605;-61
2021/12/06 06:51:57;;;;;;;;;;;;;;;;;;5063527;28;19919;-61
2021/12/06 06:54:22;;;;;;;;;;;;;;;;;;5061627;28;20299;-61
2021/12/06 06:56:47;;;;;;;;;;;;;;;;;;5065682;28;19927;-61
2021/12/06 06:59:12;;;;;;;;;;;;;;;;;;5066973;28;19913;-61
2021/12/06 07:01:37;;;;;;;;;;;;;;;;;;5062637;28;19931;-62
2021/12/06 07:04:02;;;;;;;;;;;;;;;;;;5062148;28;19919;-61
2021/12/06 07:06:28;;;;;;;;;;;;;;;;;;5064669;28;19938;-61
2021/12/06 07:08:54;;;;;;;;;;;;;;;;;;5067684;28;19912;-62
2021/12/06 07:11:19;;;;;;;;;;;;;;;;;;5063157;28;20273;-61
2021/12/06 07:13:47;;;;;;;;;;;;;;;;;;5059249;28;19919;-61
2021/12/06 07:16:12;;;;;;;;;;;;;;;;;;5060132;28;20003;-61
2021/12/06 07:18:37;;;;;;;;;;;;;;;;;;5063507;28;20005;-61
2021/12/06 07:21:02;;;;;;;;;;;;;;;;;;5058725;28;19913;-61
2021/12/06 07:23:27;;;;;;;;;;;;;;;;;;5067212;28;20015;-61
2021/12/06 07:25:52;;;;;;;;;;;;;;;;;;5061503;28;19917;-61
2021/12/06 07:28:17;;;;;;;;;;;;;;;;;;5064021;28;19912;-61
2021/12/06 07:30:42;;;;;;;;;;;;;;;;;;5059196;28;20051;-63
2021/12/06 07:33:07;;;;;;;;;;;;;;;;;;5026185;28;19947;-63
2021/12/06 07:35:32;;;;;;;;;;;;;;;;;;5078131;28;19930;-61
2021/12/06 07:38:00;;;;;;;;;;;;;;;;;;5081397;28;21591;-61
2021/12/06 07:40:25;;;;;;;;;;;;;;;;;;5081025;28;20367;-62
2021/12/06 07:42:50;;;;;;;;;;;;;;;;;;5084898;28;19912;-62
2021/12/06 07:45:15;;;;;;;;;;;;;;;;;;5067921;28;19912;-63
2021/12/06 07:47:40;;;;;;;;;;;;;;;;;;5079847;28;19927;-61
2021/12/06 07:50:06;;;;;;;;;;;;;;;;;;5082587;28;19919;-61
2021/12/06 07:52:31;;;;;;;;;;;;;;;;;;5079446;28;19934;-62
2021/12/06 07:54:59;;;;;;;;;;;;;;;;;;5083103;28;19920;-62
2021/12/06 07:57:24;;;;;;;;;;;;;;;;;;5082293;28;20035;-62
2021/12/06 07:59:49;;;;;;;;;;;;;;;;;;5082667;28;20022;-62
2021/12/06 08:02:14;;;;;;;;;;;;;;;;;;5083093;28;19915;-62
2021/12/06 08:04:39;;;;;;;;;;;;;;;;;;5080854;28;19969;-62
2021/12/06 08:07:04;;;;;;;;;;;;;;;;;;5079489;28;19930;-62
2021/12/06 08:09:29;;;;;;;;;;;;;;;;;;5083259;28;19940;-62
2021/12/06 08:11:55;;;;;;;;;;;;;;;;;;5081038;28;20351;-61
2021/12/06 08:14:20;;;;;;;;;;;;;;;;;;5081957;28;19912;-62
2021/12/06 08:16:45;;;;;;;;;;;;;;;;;;5076050;28;19962;-62
2021/12/06 08:19:10;;;;;;;;;;;;;;;;;;5080404;28;20026;-62
2021/12/06 08:21:35;;;;;;;;;;;;;;;;;;5083578;28;19920;-61
2021/12/06 08:24:00;;;;;;;;;;;;;;;;;;5082125;28;21236;-62
2021/12/06 08:26:25;;;;;;;;;;;;;;;;;;5081746;28;19921;-61
2021/12/06 08:28:50;;;;;;;;;;;;;;;;;;5082400;28;20561;-62
2021/12/06 08:31:16;;;;;;;;;;;;;;;;;;5081368;28;19996;-64
2021/12/06 08:33:41;;;;;;;;;;;;;;;;;;5082178;28;20649;-62
2021/12/06 08:36:06;;;;;;;;;;;;;;;;;;5082220;28;20007;-62
2021/12/06 08:38:31;;;;;;;;;;;;;;;;;;5082338;28;19916;-61
2021/12/06 08:40:56;;;;;;;;;;;;;;;;;;5082186;28;19927;-62
2021/12/06 08:43:21;;;;;;;;;;;;;;;;;;5080477;28;19959;-61
2021/12/06 08:45:46;;;;;;;;;;;;;;;;;;5083326;28;19978;-62
2021/12/06 08:48:11;;;;;;;;;;;;;;;;;;5082483;28;20383;-61
2021/12/06 08:50:36;;;;;;;;;;;;;;;;;;5080488;28;19974;-61
2021/12/06 08:53:01;;;;;;;;;;;;;;;;;;5086044;28;19923;-61
2021/12/06 08:55:26;;;;;;;;;;;;;;;;;;5079561;28;20003;-61
2021/12/06 08:57:52;;;;;;;;;;;;;;;;;;5077233;28;19916;-62
2021/12/06 09:00:17;;;;;;;;;;;;;;;;;;5081288;28;19912;-62
2021/12/06 09:02:42;;;;;;;;;;;;;;;;;;5081469;28;19916;-61
2021/12/06 09:05:07;;;;;;;;;;;;;;;;;;5082330;28;19962;-61
2021/12/06 09:07:32;;;;;;;;;;;;;;;;;;5079246;28;19977;-62
2021/12/06 09:09:57;;;;;;;;;;;;;;;;;;5079379;28;19932;-62
2021/12/06 09:12:24;;;;;;;;;;;;;;;;;;5082442;28;19920;-62
2021/12/06 09:14:49;;;;;;;;;;;;;;;;;;5078088;28;20025;-62
2021/12/06 09:17:14;;;;;;;;;;;;;;;;;;5080779;28;20695;-61
2021/12/06 09:19:39;;;;;;;;;;;;;;;;;;5080342;28;19916;-61
2021/12/06 09:22:04;;;;;;;;;;;;;;;;;;5081298;28;19912;-61
2021/12/06 09:24:29;;;;;;;;;;;;;;;;;;5082219;28;19969;-61
2021/12/06 09:26:54;;;;;;;;;;;;;;;;;;5080468;28;19919;-62
2021/12/06 09:29:20;;;;;;;;;;;;;;;;;;5080415;28;19920;-62
2021/12/06 09:31:45;;;;;;;;;;;;;;;;;;5081766;28;19920;-62
2021/12/06 09:34:10;;;;;;;;;;;;;;;;;;5078524;28;19945;-61
2021/12/06 09:36:36;;;;;;;;;;;;;;;;;;5082146;28;20388;-62
2021/12/06 09:39:01;;;;;;;;;;;;;;;;;;5085371;28;20300;-62
2021/12/06 09:41:27;;;;;;;;;;;;;;;;;;5083866;28;19912;-62
2021/12/06 09:43:52;;;;;;;;;;;;;;;;;;5085441;28;19970;-62
2021/12/06 09:46:17;;;;;;;;;;;;;;;;;;5085384;28;19967;-61
2021/12/06 09:48:42;;;;;;;;;;;;;;;;;;5086035;28;19920;-61
2021/12/06 09:51:08;;;;;;;;;;;;;;;;;;5088323;28;20614;-61
2021/12/06 09:53:34;;;;;;;;;;;;;;;;;;5082954;28;19920;-61
2021/12/06 09:55:59;;;;;;;;;;;;;;;;;;5085774;28;19924;-62
2021/12/06 09:58:24;;;;;;;;;;;;;;;;;;5085330;28;19932;-62
2021/12/06 10:00:49;;;;;;;;;;;;;;;;;;5085131;28;20012;-62
2021/12/06 10:03:18;;;;;;;;;;;;;;;;;;5086851;28;19916;-62
2021/12/06 10:05:43;;;;;;;;;;;;;;;;;;5084464;28;19924;-62
2021/12/06 10:08:08;;;;;;;;;;;;;;;;;;5083889;28;19912;-61
2021/12/06 10:10:33;;;;;;;;;;;;;;;;;;5087002;28;19912;-61
2021/12/06 10:12:58;;;;;;;;;;;;;;;;;;5080818;28;19927;-62
2021/12/06 10:15:25;;;;;;;;;;;;;;;;;;5082747;28;19993;-62
2021/12/06 10:17:50;;;;;;;;;;;;;;;;;;5084902;28;19916;-60
2021/12/06 10:20:15;;;;;;;;;;;;;;;;;;5084533;28;19928;-61
2021/12/06 10:22:40;;;;;;;;;;;;;;;;;;5087310;28;20379;-61
2021/12/06 10:25:06;;;;;;;;;;;;;;;;;;5084197;28;19916;-61
2021/12/06 10:27:31;;;;;;;;;;;;;;;;;;5083661;28;19916;-62
2021/12/06 10:29:59;;;;;;;;;;;;;;;;;;5084720;28;19916;-62
2021/12/06 10:32:24;;;;;;;;;;;;;;;;;;5083820;28;20014;-62
2021/12/06 10:34:50;;;;;;;;;;;;;;;;;;5086065;28;20061;-61
2021/12/06 10:37:15;;;;;;;;;;;;;;;;;;5082831;28;19931;-61
2021/12/06 10:39:40;;;;;;;;;;;;;;;;;;5081553;28;19912;-63
2021/12/06 10:42:05;;;;;;;;;;;;;;;;;;5086168;28;19939;-62
2021/12/06 10:44:30;;;;;;;;;;;;;;;;;;5083344;28;19919;-61
2021/12/06 10:46:55;;;;;;;;;;;;;;;;;;5083092;28;19962;-63
2021/12/06 10:49:20;;;;;;;;;;;;;;;;;;5084923;28;20344;-62
2021/12/06 10:51:45;;;;;;;;;;;;;;;;;;5081811;28;19923;-62
2021/12/06 10:54:17;;;;;;;;;;;;;;;;;;5084421;28;20372;-62
2021/12/06 10:56:45;;;;;;;;;;;;;;;;;;5082465;28;19927;-61
2021/12/06 10:59:10;;;;;;;;;;;;;;;;;;5084645;28;20648;-61
2021/12/06 11:01:35;;;;;;;;;;;;;;;;;;5080770;28;20404;-63
2021/12/06 11:04:00;;;;;;;;;;;;;;;;;;5081768;28;19920;-62
2021/12/06 11:06:26;;;;;;;;;;;;;;;;;;5074080;28;19966;-63
2021/12/06 11:08:51;;;;;;;;;;;;;;;;;;5080200;28;19912;-63
2021/12/06 11:11:16;;;;;;;;;;;;;;;;;;5081643;28;19926;-62
2021/12/06 11:13:41;;;;;;;;;;;;;;;;;;5081903;28;20728;-62
2021/12/06 11:16:07;;;;;;;;;;;;;;;;;;5080458;28;20363;-63
2021/12/06 11:18:32;;;;;;;;;;;;;;;;;;5082771;28;19912;-62
2021/12/06 11:20:57;;;;;;;;;;;;;;;;;;5084850;28;19930;-62
2021/12/06 11:23:22;;;;;;;;;;;;;;;;;;5080034;28;19993;-62
2021/12/06 11:25:47;;;;;;;;;;;;;;;;;;5083295;28;19920;-63
2021/12/06 11:28:12;;;;;;;;;;;;;;;;;;5084359;28;19912;-62
2021/12/06 11:30:38;;;;;;;;;;;;;;;;;;5083327;28;21253;-62
2021/12/06 11:33:03;;;;;;;;;;;;;;;;;;5084789;28;19939;-62
2021/12/06 11:35:30;;;;;;;;;;;;;;;;;;5082461;28;19935;-62
2021/12/06 11:37:56;;;;;;;;;;;;;;;;;;5084965;28;19927;-62
2021/12/06 11:40:21;;;;;;;;;;;;;;;;;;5063038;28;20362;-62
2021/12/06 11:42:46;;;;;;;;;;;;;;;;;;5077550;28;20413;-62
2021/12/06 11:45:11;;;;;;;;;;;;;;;;;;5076836;28;19919;-62
2021/12/06 11:47:36;;;;;;;;;;;;;;;;;;5079366;28;20360;-62
2021/12/06 11:50:01;;;;;;;;;;;;;;;;;;5079088;28;19916;-62
2021/12/06 11:52:26;;;;;;;;;;;;;;;;;;5082090;28;19916;-62
2021/12/06 11:54:51;;;;;;;;;;;;;;;;;;5083818;28;19966;-62
2021/12/06 11:57:16;;;;;;;;;;;;;;;;;;5048090;28;20007;-63
2021/12/06 11:59:41;;;;;;;;;;;;;;;;;;5075427;28;19919;-63
2021/12/06 12:02:06;;;;;;;;;;;;;;;;;;5076710;28;19916;-62
2021/12/06 12:04:33;;;;;;;;;;;;;;;;;;5081378;28;19920;-62
2021/12/06 12:07:00;;;;;;;;;;;;;;;;;;5080851;28;19919;-63
2021/12/06 12:09:25;;;;;;;;;;;;;;;;;;5081192;28;20354;-62
2021/12/06 12:11:50;;;;;;;;;;;;;;;;;;5080118;28;19919;-62
2021/12/06 12:14:15;;;;;;;;;;;;;;;;;;5079446;28;19912;-62
2021/12/06 12:16:40;;;;;;;;;;;;;;;;;;5083400;28;19949;-62
2021/12/06 12:19:05;;;;;;;;;;;;;;;;;;5080929;28;19912;-62
2021/12/06 12:21:30;;;;;;;;;;;;;;;;;;5079132;28;19995;-62
2021/12/06 12:23:55;;;;;;;;;;;;;;;;;;5083257;28;19920;-62
2021/12/06 12:26:21;;;;;;;;;;;;;;;;;;5082975;28;20390;-62
2021/12/06 12:28:52;;;;;;;;;;;;;;;;;;5082495;28;19919;-62
2021/12/06 12:31:17;;;;;;;;;;;;;;;;;;5080287;28;19925;-62
2021/12/06 12:33:43;;;;;;;;;;;;;;;;;;5081591;28;19968;-62
2021/12/06 12:36:08;;;;;;;;;;;;;;;;;;5080826;28;19966;-62
2021/12/06 12:38:34;;;;;;;;;;;;;;;;;;5084583;28;19916;-62
2021/12/06 12:40:59;;;;;;;;;;;;;;;;;;5081709;28;19920;-62
2021/12/06 12:43:24;;;;;;;;;;;;;;;;;;5082171;28;19927;-62
2021/12/06 12:45:50;;;;;;;;;;;;;;;;;;5084121;28;20259;-62
2021/12/06 12:48:16;;;;;;;;;;;;;;;;;;5082726;28;19920;-62
2021/12/06 12:50:41;;;;;;;;;;;;;;;;;;5083370;28;19933;-62
2021/12/06 12:53:06;;;;;;;;;;;;;;;;;;5081826;28;19920;-62
2021/12/06 12:55:32;;;;;;;;;;;;;;;;;;5081457;28;19912;-62
2021/12/06 12:57:57;;;;;;;;;;;;;;;;;;5082638;28;20006;-62
2021/12/06 13:00:22;;;;;;;;;;;;;;;;;;5081325;28;19912;-63
2021/12/06 13:02:47;;;;;;;;;;;;;;;;;;5081989;28;19916;-62
2021/12/06 13:05:12;;;;;;;;;;;;;;;;;;5082967;28;19920;-62
2021/12/06 13:07:37;;;;;;;;;;;;;;;;;;5080710;28;19912;-62
2021/12/06 13:10:02;;;;;;;;;;;;;;;;;;5082438;28;19912;-62
2021/12/06 13:12:28;;;;;;;;;;;;;;;;;;5080368;28;19916;-62
2021/12/06 13:14:57;;;;;;;;;;;;;;;;;;5082931;28;19920;-62
2021/12/06 13:17:28;;;;;;;;;;;;;;;;;;5082236;28;19993;-62
2021/12/06 13:20:07;;;;;;;;;;;;;;;;;;5082246;28;19966;-62
2021/12/06 13:22:33;;;;;;;;;;;;;;;;;;5082897;28;19920;-62
2021/12/06 13:24:58;;;;;;;;;;;;;;;;;;5079909;28;19912;-62
2021/12/06 13:27:23;;;;;;;;;;;;;;;;;;5082090;28;19948;-62
2021/12/06 13:29:48;;;;;;;;;;;;;;;;;;5083458;28;19912;-63
2021/12/06 13:32:13;;;;;;;;;;;;;;;;;;5080345;28;19928;-62
2021/12/06 13:34:38;;;;;;;;;;;;;;;;;;5083163;28;19915;-61
2021/12/06 13:37:03;;;;;;;;;;;;;;;;;;5082116;28;20364;-62
2021/12/06 13:39:28;;;;;;;;;;;;;;;;;;5083007;28;19912;-63
2021/12/06 13:41:53;;;;;;;;;;;;;;;;;;5084341;28;19923;-62
2021/12/06 13:44:22;;;;;;;;;;;;;;;;;;5080528;28;19955;-62
2021/12/06 13:46:47;;;;;;;;;;;;;;;;;;5081674;28;20410;-63
2021/12/06 13:49:12;;;;;;;;;;;;;;;;;;5083495;28;19916;-63
2021/12/06 13:51:37;;;;;;;;;;;;;;;;;;5079410;28;19912;-61
2021/12/06 13:54:03;;;;;;;;;;;;;;;;;;5081908;28;19927;-62
2021/12/06 13:56:28;;;;;;;;;;;;;;;;;;5081989;28;20364;-61
2021/12/06 13:58:53;;;;;;;;;;;;;;;;;;5080194;28;19920;-61
2021/12/06 14:01:20;;;;;;;;;;;;;;;;;;5081089;28;20011;-63
2021/12/06 14:03:45;;;;;;;;;;;;;;;;;;5081209;28;19919;-62
2021/12/06 14:06:10;;;;;;;;;;;;;;;;;;5082121;28;19921;-62
2021/12/06 14:08:35;;;;;;;;;;;;;;;;;;5081622;28;19916;-61
2021/12/06 14:11:00;;;;;;;;;;;;;;;;;;5080944;28;19969;-61
2021/12/06 14:13:25;;;;;;;;;;;;;;;;;;5080498;28;19947;-62
2021/12/06 14:15:53;;;;;;;;;;;;;;;;;;5081832;28;20010;-62
2021/12/06 14:18:18;;;;;;;;;;;;;;;;;;5081072;28;19927;-61
2021/12/06 14:20:43;;;;;;;;;;;;;;;;;;5080715;28;19913;-61
2021/12/06 14:23:12;;;;;;;;;;;;;;;;;;5082005;28;19920;-62
2021/12/06 14:25:39;;;;;;;;;;;;;;;;;;5083508;28;19981;-62
2021/12/06 14:28:04;;;;;;;;;;;;;;;;;;5082070;28;19920;-62
2021/12/06 14:30:29;;;;;;;;;;;;;;;;;;5080169;28;19932;-62
2021/12/06 14:32:54;;;;;;;;;;;;;;;;;;5083531;28;20434;-61
2021/12/06 14:35:20;;;;;;;;;;;;;;;;;;5083019;28;20007;-62
2021/12/06 14:37:45;;;;;;;;;;;;;;;;;;5080681;28;19927;-62
2021/12/06 14:40:11;;;;;;;;;;;;;;;;;;5085282;28;19995;-60
2021/12/06 14:42:36;;;;;;;;;;;;;;;;;;5084613;28;19955;-61
2021/12/06 14:45:02;;;;;;;;;;;;;;;;;;5084890;28;19978;-62
2021/12/06 14:47:27;;;;;;;;;;;;;;;;;;5087099;28;19935;-62
2021/12/06 14:49:53;;;;;;;;;;;;;;;;;;5085049;28;19920;-62
2021/12/06 14:52:23;;;;;;;;;;;;;;;;;;5084789;28;19920;-62
2021/12/06 14:54:53;;;;;;;;;;;;;;;;;;5084751;28;19947;-64
2021/12/06 14:57:18;;;;;;;;;;;;;;;;;;5086471;28;19967;-64
2021/12/06 14:59:46;;;;;;;;;;;;;;;;;;5083770;28;19990;-64
2021/12/06 15:02:11;;;;;;;;;;;;;;;;;;5083039;28;19979;-64
2021/12/06 15:04:41;;;;;;;;;;;;;;;;;;5083850;28;19962;-64
2021/12/06 15:07:06;;;;;;;;;;;;;;;;;;5082358;28;20390;-64
2021/12/06 15:09:32;;;;;;;;;;;;;;;;;;5081633;28;20011;-64
2021/12/06 15:12:01;;;;;;;;;;;;;;;;;;5083006;28;20295;-64
2021/12/06 15:14:26;;;;;;;;;;;;;;;;;;5084005;28;19949;-64
2021/12/06 15:16:51;;;;;;;;;;;;;;;;;;5082012;28;19920;-64
2021/12/06 15:19:18;;;;;;;;;;;;;;;;;;5086623;28;19919;-64
2021/12/06 15:21:43;;;;;;;;;;;;;;;;;;5081716;28;20395;-64
2021/12/06 15:24:10;;;;;;;;;;;;;;;;;;5082944;28;19963;-64
2021/12/06 15:26:41;;;;;;;;;;;;;;;;;;5085204;28;19924;-63
2021/12/06 15:29:06;;;;;;;;;;;;;;;;;;5082064;28;20267;-64
2021/12/06 15:31:32;;;;;;;;;;;;;;;;;;5078392;28;20415;-64
2021/12/06 15:33:57;;;;;;;;;;;;;;;;;;5060603;28;19913;-64
2021/12/06 15:36:22;;;;;;;;;;;;;;;;;;5061133;28;20444;-64
2021/12/06 15:38:47;;;;;;;;;;;;;;;;;;5061209;28;19977;-65
2021/12/06 15:41:12;;;;;;;;;;;;;;;;;;5060670;28;20134;-64
2021/12/06 15:43:38;;;;;;;;;;;;;;;;;;5060798;28;20406;-64
2021/12/06 15:46:03;;;;;;;;;;;;;;;;;;5066381;28;20391;-65
2021/12/06 15:48:28;;;;;;;;;;;;;;;;;;5063062;28;19975;-65
2021/12/06 15:50:53;;;;;;;;;;;;;;;;;;5063698;28;19913;-64
2021/12/06 15:53:18;;;;;;;;;;;;;;;;;;5062335;28;19924;-64
2021/12/06 15:55:43;;;;;;;;;;;;;;;;;;5060952;28;20019;-63
2021/12/06 15:58:12;;;;;;;;;;;;;;;;;;5063913;28;19995;-63
2021/12/06 16:00:37;;;;;;;;;;;;;;;;;;5061194;28;19943;-63
2021/12/06 16:03:02;;;;;;;;;;;;;;;;;;5063206;28;19966;-63
2021/12/06 16:05:27;;;;;;;;;;;;;;;;;;5061689;28;19931;-65
2021/12/06 16:07:52;;;;;;;;;;;;;;;;;;5061263;28;19966;-63
2021/12/06 16:10:17;;;;;;;;;;;;;;;;;;5060449;28;19931;-63
2021/12/06 16:12:42;;;;;;;;;;;;;;;;;;5060214;28;19970;-63
2021/12/06 16:15:07;;;;;;;;;;;;;;;;;;5060164;28;20023;-63
2021/12/06 16:17:33;;;;;;;;;;;;;;;;;;5045074;28;20024;-63
2021/12/06 16:19:58;;;;;;;;;;;;;;;;;;5062422;28;20007;-63
2021/12/06 16:22:23;;;;;;;;;;;;;;;;;;5066280;28;21079;-63
2021/12/06 16:24:49;;;;;;;;;;;;;;;;;;5062759;28;19913;-64
2021/12/06 16:27:14;;;;;;;;;;;;;;;;;;5057112;28;19917;-62
2021/12/06 16:29:40;;;;;;;;;;;;;;;;;;5061426;28;20014;-63
2021/12/06 16:32:08;;;;;;;;;;;;;;;;;;5068735;28;19966;-63
2021/12/06 16:34:34;;;;;;;;;;;;;;;;;;5080416;28;19923;-62
2021/12/06 16:36:59;;;;;;;;;;;;;;;;;;5081297;28;19920;-62
2021/12/06 16:39:25;;;;;;;;;;;;;;;;;;5077402;28;19927;-61
2021/12/06 16:41:50;;;;;;;;;;;;;;;;;;5079336;28;19912;-62
2021/12/06 16:44:19;;;;;;;;;;;;;;;;;;5087852;28;19994;-62
2021/12/06 16:46:44;;;;;;;;;;;;;;;;;;5080939;28;19919;-63